createdAt,value
2023-04-23T00:01:02.444Z,15.00
2023-04-23T00:03:34.619Z,15.00
2023-04-23T00:06:06.403Z,15.00
2023-04-23T00:08:34.786Z,14.90
2023-04-23T00:11:03.639Z,14.90
2023-04-23T00:13:33.166Z,14.90
2023-04-23T00:16:01.505Z,14.90
2023-04-23T00:18:29.535Z,14.90
2023-04-23T00:20:57.555Z,14.90
2023-04-23T00:23:25.559Z,14.80
2023-04-23T00:25:53.761Z,14.80
2023-04-23T00:28:22.380Z,14.80
2023-04-23T00:30:51.609Z,14.80
2023-04-23T00:33:19.463Z,14.80
2023-04-23T00:35:47.271Z,14.80
2023-04-23T00:38:15.330Z,14.80
2023-04-23T00:40:43.159Z,14.80
2023-04-23T00:43:11.606Z,14.70
2023-04-23T00:45:39.533Z,14.70
2023-04-23T00:48:09.221Z,14.70
2023-04-23T00:50:37.193Z,14.70
2023-04-23T00:53:05.620Z,14.70
2023-04-23T00:55:34.815Z,14.60
2023-04-23T00:58:02.920Z,14.60
2023-04-23T01:00:30.973Z,14.60
2023-04-23T01:02:59.433Z,14.60
2023-04-23T01:05:29.269Z,14.50
2023-04-23T01:07:57.682Z,14.60
2023-04-23T01:10:25.925Z,14.60
2023-04-23T01:12:54.380Z,14.50
2023-04-23T01:15:22.402Z,14.50
2023-04-23T01:17:50.465Z,14.50
2023-04-23T01:20:18.448Z,14.50
2023-04-23T01:22:47.635Z,14.50
2023-04-23T01:25:15.605Z,14.40
2023-04-23T01:27:43.557Z,14.50
2023-04-23T01:30:12.172Z,14.40
2023-04-23T01:32:41.183Z,14.40
2023-04-23T01:35:09.827Z,14.40
2023-04-23T01:37:39.424Z,14.40
2023-04-23T01:40:10.405Z,14.40
2023-04-23T01:42:39.171Z,14.40
2023-04-23T01:45:09.070Z,14.40
2023-04-23T01:47:37.146Z,14.30
2023-04-23T01:50:05.932Z,14.30
2023-04-23T01:52:34.067Z,14.30
2023-04-23T01:55:02.288Z,14.30
2023-04-23T01:57:31.637Z,14.30
2023-04-23T02:00:08.104Z,14.30
2023-04-23T02:02:37.297Z,14.20
2023-04-23T02:05:06.295Z,14.20
2023-04-23T02:07:35.221Z,14.20
2023-04-23T02:10:03.992Z,14.20
2023-04-23T02:12:33.188Z,14.20
2023-04-23T02:15:01.150Z,14.20
2023-04-23T02:17:30.333Z,14.20
2023-04-23T02:19:58.207Z,14.20
2023-04-23T02:22:29.234Z,14.20
2023-04-23T02:24:57.033Z,14.20
2023-04-23T02:27:24.887Z,14.10
2023-04-23T02:29:54.483Z,14.10
2023-04-23T02:32:22.524Z,14.10
2023-04-23T02:34:50.510Z,14.10
2023-04-23T02:37:18.377Z,14.10
2023-04-23T02:39:46.283Z,14.10
2023-04-23T02:42:14.781Z,14.10
2023-04-23T02:44:42.907Z,14.10
2023-04-23T02:47:12.385Z,14.00
2023-04-23T02:49:40.145Z,14.10
2023-04-23T02:52:08.033Z,14.00
2023-04-23T02:54:36.990Z,14.00
2023-04-23T02:57:04.953Z,14.00
2023-04-23T02:59:32.891Z,14.00
2023-04-23T03:02:00.809Z,13.90
2023-04-23T03:04:30.000Z,13.90
2023-04-23T03:06:57.892Z,13.90
2023-04-23T03:09:25.771Z,13.90
2023-04-23T03:11:53.548Z,13.90
2023-04-23T03:14:21.363Z,13.90
2023-04-23T03:16:49.184Z,13.90
2023-04-23T03:19:17.010Z,13.90
2023-04-23T03:21:46.118Z,13.80
2023-04-23T03:24:15.071Z,13.80
2023-04-23T03:26:42.958Z,13.80
2023-04-23T03:29:11.175Z,13.80
2023-04-23T03:31:39.025Z,13.70
2023-04-23T03:34:06.854Z,13.70
2023-04-23T03:36:34.694Z,13.70
2023-04-23T03:39:03.843Z,13.70
2023-04-23T03:41:31.686Z,13.60
2023-04-23T03:43:59.450Z,13.60
2023-04-23T03:46:27.336Z,13.60
2023-04-23T03:48:55.141Z,13.60
2023-04-23T03:51:22.970Z,13.60
2023-04-23T03:53:51.886Z,13.60
2023-04-23T03:56:21.211Z,13.60
2023-04-23T03:58:48.987Z,13.60
2023-04-23T04:01:16.886Z,13.60
2023-04-23T04:03:44.967Z,13.60
2023-04-23T04:06:12.945Z,13.60
2023-04-23T04:08:40.749Z,13.60
2023-04-23T04:11:08.637Z,13.60
2023-04-23T04:13:37.758Z,13.50
2023-04-23T04:16:06.387Z,13.50
2023-04-23T04:18:34.242Z,13.50
2023-04-23T04:21:02.271Z,13.50
2023-04-23T04:23:31.006Z,13.40
2023-04-23T04:25:59.972Z,13.40
2023-04-23T04:28:27.867Z,13.40
2023-04-23T04:30:58.391Z,13.40
2023-04-23T04:33:26.721Z,13.40
2023-04-23T04:35:54.776Z,13.40
2023-04-23T04:38:22.827Z,13.40
2023-04-23T04:40:50.887Z,13.40
2023-04-23T04:43:18.747Z,13.40
2023-04-23T04:45:46.572Z,13.40
2023-04-23T04:48:15.744Z,13.30
2023-04-23T04:50:44.255Z,13.30
2023-04-23T04:53:12.064Z,13.30
2023-04-23T04:55:39.902Z,13.30
2023-04-23T04:58:07.740Z,13.30
2023-04-23T05:00:35.611Z,13.30
2023-04-23T05:03:04.072Z,13.30
2023-04-23T05:05:34.255Z,13.20
2023-04-23T05:08:02.331Z,13.20
2023-04-23T05:10:30.299Z,13.20
2023-04-23T05:12:58.584Z,13.20
2023-04-23T05:15:26.403Z,13.20
2023-04-23T05:17:54.759Z,13.20
2023-04-23T05:20:23.013Z,13.20
2023-04-23T05:22:52.228Z,13.20
2023-04-23T05:25:20.130Z,13.20
2023-04-23T05:27:47.986Z,13.20
2023-04-23T05:30:16.264Z,13.20
2023-04-23T05:32:44.195Z,13.20
2023-04-23T05:35:12.016Z,13.20
2023-04-23T05:37:39.840Z,13.20
2023-04-23T05:40:10.416Z,13.20
2023-04-23T05:42:38.484Z,13.20
2023-04-23T05:45:09.038Z,13.20
2023-04-23T05:47:37.521Z,13.20
2023-04-23T05:50:06.413Z,13.10
2023-04-23T05:52:37.117Z,13.10
2023-04-23T05:55:05.673Z,13.20
2023-04-23T05:57:34.884Z,13.10
2023-04-23T06:00:03.729Z,13.20
2023-04-23T06:02:33.817Z,13.20
2023-04-23T06:05:02.228Z,13.20
2023-04-23T06:07:30.464Z,13.20
2023-04-23T06:09:58.283Z,13.10
2023-04-23T06:12:26.409Z,13.20
2023-04-23T06:14:55.594Z,13.20
2023-04-23T06:17:23.438Z,13.20
2023-04-23T06:19:51.321Z,13.10
2023-04-23T06:22:19.186Z,13.20
2023-04-23T06:24:46.985Z,13.20
2023-04-23T06:27:14.909Z,13.20
2023-04-23T06:29:42.752Z,13.20
2023-04-23T06:32:12.333Z,13.20
2023-04-23T06:34:53.157Z,13.10
2023-04-23T06:37:27.536Z,13.20
2023-04-23T06:39:57.036Z,13.20
2023-04-23T06:42:24.923Z,13.20
2023-04-23T06:44:52.784Z,13.20
2023-04-23T06:47:22.050Z,13.20
2023-04-23T06:49:49.937Z,13.20
2023-04-23T06:52:17.805Z,13.20
2023-04-23T06:54:45.594Z,13.20
2023-04-23T06:57:13.446Z,13.20
2023-04-23T06:59:41.312Z,13.30
2023-04-23T07:02:09.290Z,13.30
2023-04-23T07:04:38.827Z,13.30
2023-04-23T07:07:07.084Z,13.30
2023-04-23T07:09:35.092Z,13.30
2023-04-23T07:12:03.446Z,13.40
2023-04-23T07:14:31.269Z,13.40
2023-04-23T07:16:59.489Z,13.40
2023-04-23T07:19:27.490Z,13.40
2023-04-23T07:21:56.802Z,13.40
2023-04-23T07:24:26.403Z,13.40
2023-04-23T07:26:54.238Z,13.40
2023-04-23T07:29:22.138Z,13.50
2023-04-23T07:31:49.940Z,13.50
2023-04-23T07:34:17.876Z,13.50
2023-04-23T07:36:45.708Z,13.60
2023-04-23T07:39:14.933Z,13.60
2023-04-23T07:41:42.756Z,13.70
2023-04-23T07:44:10.634Z,13.80
2023-04-23T07:46:38.497Z,13.80
2023-04-23T07:49:07.335Z,13.90
2023-04-23T07:51:36.064Z,13.90
2023-04-23T07:54:04.367Z,14.00
2023-04-23T07:56:33.650Z,14.00
2023-04-23T07:59:01.983Z,14.00
2023-04-23T08:01:30.301Z,14.10
2023-04-23T08:04:00.729Z,14.10
2023-04-23T08:06:29.878Z,14.10
2023-04-23T08:08:57.843Z,14.20
2023-04-23T08:11:25.649Z,14.20
2023-04-23T08:13:54.874Z,14.30
2023-04-23T08:16:22.834Z,14.30
2023-04-23T08:19:04.131Z,14.30
2023-04-23T08:21:33.828Z,14.30
2023-04-23T08:24:03.058Z,14.40
2023-04-23T08:26:31.492Z,14.40
2023-04-23T08:29:01.480Z,14.40
2023-04-23T08:31:29.479Z,14.40
2023-04-23T08:33:57.734Z,14.50
2023-04-23T08:36:26.130Z,14.50
2023-04-23T08:38:53.959Z,14.50
2023-04-23T08:41:26.004Z,14.60
2023-04-23T08:44:00.646Z,14.60
2023-04-23T08:46:33.100Z,14.60
2023-04-23T08:49:03.972Z,14.70
2023-04-23T08:51:36.651Z,14.70
2023-04-23T08:54:06.557Z,14.80
2023-04-23T08:56:35.851Z,14.90
2023-04-23T08:59:04.591Z,14.90
2023-04-23T09:01:33.791Z,15.00
2023-04-23T09:04:02.184Z,15.00
2023-04-23T09:06:32.015Z,15.10
2023-04-23T09:09:00.823Z,15.20
2023-04-23T09:11:30.364Z,15.20
2023-04-23T09:13:58.488Z,15.30
2023-04-23T09:16:27.544Z,15.30
2023-04-23T09:18:57.193Z,15.40
2023-04-23T09:21:25.281Z,15.40
2023-04-23T09:23:53.248Z,15.50
2023-04-23T09:26:22.370Z,15.60
2023-04-23T09:28:51.597Z,15.70
2023-04-23T09:31:22.733Z,15.70
2023-04-23T09:33:54.311Z,15.80
2023-04-23T09:36:24.539Z,15.90
2023-04-23T09:38:56.963Z,15.90
2023-04-23T09:41:25.940Z,16.00
2023-04-23T09:43:57.689Z,16.10
2023-04-23T09:46:37.353Z,16.10
2023-04-23T09:49:07.747Z,16.20
2023-04-23T09:51:40.294Z,16.30
2023-04-23T09:54:13.571Z,16.30
2023-04-23T09:56:41.634Z,16.40
2023-04-23T09:59:26.748Z,16.40
2023-04-23T10:02:03.990Z,16.40
2023-04-23T10:04:32.184Z,16.50
2023-04-23T10:09:35.832Z,16.70
2023-04-23T10:12:04.649Z,16.70
2023-04-23T10:14:32.525Z,16.80
2023-04-23T10:17:01.992Z,16.80
2023-04-23T10:19:30.732Z,16.90
2023-04-23T10:22:12.170Z,16.90
2023-04-23T10:24:55.824Z,16.90
2023-04-23T10:27:36.818Z,17.00
2023-04-23T10:30:14.547Z,17.00
2023-04-23T10:32:43.103Z,17.10
2023-04-23T10:35:11.745Z,17.10
2023-04-23T10:37:39.853Z,17.20
2023-04-23T10:40:12.827Z,17.30
2023-04-23T10:42:41.619Z,17.30
2023-04-23T10:45:23.280Z,17.30
2023-04-23T10:47:54.493Z,17.40
2023-04-23T10:50:26.847Z,17.40
2023-04-23T10:52:56.856Z,17.50
2023-04-23T10:55:28.500Z,17.50
2023-04-23T10:58:02.321Z,17.50
2023-04-23T11:00:42.823Z,17.60
2023-04-23T11:03:30.830Z,17.60
2023-04-23T11:05:59.201Z,17.60
2023-04-23T11:08:27.027Z,17.70
2023-04-23T11:10:59.171Z,17.70
2023-04-23T11:13:28.219Z,17.80
2023-04-23T11:16:15.737Z,17.80
2023-04-23T11:18:59.419Z,17.80
2023-04-23T11:21:58.349Z,17.80
2023-04-23T11:24:27.790Z,17.90
2023-04-23T11:26:57.475Z,17.90
2023-04-23T11:29:26.690Z,17.90
2023-04-23T11:34:27.056Z,18.10
2023-04-23T11:36:55.660Z,18.10
2023-04-23T11:39:25.789Z,18.20
2023-04-23T11:41:54.138Z,18.30
2023-04-23T11:44:24.214Z,18.30
2023-04-23T11:46:52.255Z,18.30
2023-04-23T11:49:21.645Z,18.30
2023-04-23T11:51:49.804Z,18.40
2023-04-23T11:54:18.288Z,18.40
2023-04-23T11:56:46.181Z,18.50
2023-04-23T11:59:14.087Z,18.60
2023-04-23T12:01:44.893Z,18.70
2023-04-23T12:04:17.234Z,18.90
2023-04-23T12:06:46.870Z,19.00
2023-04-23T12:09:16.323Z,19.10
2023-04-23T12:11:45.657Z,19.10
2023-04-23T12:14:15.904Z,19.10
2023-04-23T12:16:47.004Z,19.10
2023-04-23T12:19:16.773Z,19.20
2023-04-23T12:21:54.526Z,19.20
2023-04-23T12:24:23.948Z,19.40
2023-04-23T12:26:54.556Z,19.40
2023-04-23T12:29:23.466Z,19.40
2023-04-23T12:31:54.022Z,19.40
2023-04-23T12:34:22.409Z,19.40
2023-04-23T12:36:52.229Z,19.40
2023-04-23T12:39:25.740Z,19.40
2023-04-23T12:41:54.730Z,19.30
2023-04-23T12:44:22.911Z,19.30
2023-04-23T12:46:57.707Z,19.30
2023-04-23T12:49:27.022Z,19.40
2023-04-23T12:51:57.324Z,19.40
2023-04-23T12:54:26.583Z,19.40
2023-04-23T12:56:54.869Z,19.40
2023-04-23T12:59:22.813Z,19.50
2023-04-23T13:01:53.037Z,19.60
2023-04-23T13:04:21.067Z,19.80
2023-04-23T13:06:49.010Z,19.90
2023-04-23T13:09:16.949Z,19.90
2023-04-23T13:11:46.854Z,19.90
2023-04-23T13:14:14.992Z,20.00
2023-04-23T13:16:43.222Z,20.10
2023-04-23T13:19:12.977Z,20.20
2023-04-23T13:21:40.937Z,20.30
2023-04-23T13:24:08.860Z,20.30
2023-04-23T13:26:37.135Z,20.30
2023-04-23T13:29:06.034Z,20.30
2023-04-23T13:31:33.995Z,20.50
2023-04-23T13:34:02.819Z,20.50
2023-04-23T13:36:32.112Z,20.50
2023-04-23T13:39:00.046Z,20.60
2023-04-23T13:41:27.910Z,20.70
2023-04-23T13:43:55.715Z,20.80
2023-04-23T13:46:23.587Z,20.80
2023-04-23T13:48:51.536Z,20.90
2023-04-23T13:51:33.877Z,20.90
2023-04-23T13:54:05.500Z,21.00
2023-04-23T13:56:33.667Z,21.00
2023-04-23T14:01:34.716Z,21.00
2023-04-23T14:04:04.493Z,21.10
2023-04-23T14:06:32.741Z,21.20
2023-04-23T14:09:00.640Z,21.30
2023-04-23T14:11:29.996Z,21.20
2023-04-23T14:13:58.341Z,21.40
2023-04-23T14:16:26.281Z,21.50
2023-04-23T14:18:54.153Z,21.50
2023-04-23T14:21:22.870Z,22.50
2023-04-23T14:23:52.510Z,21.50
2023-04-23T14:26:47.245Z,22.10
2023-04-23T14:29:25.212Z,21.50
2023-04-23T14:31:55.111Z,21.40
2023-04-23T14:34:23.155Z,21.40
2023-04-23T14:36:52.994Z,21.40
2023-04-23T14:39:25.592Z,21.30
2023-04-23T14:41:54.844Z,21.40
2023-04-23T14:44:23.472Z,21.30
2023-04-23T14:46:51.415Z,21.30
2023-04-23T14:49:20.794Z,21.30
2023-04-23T14:51:50.047Z,21.30
2023-04-23T14:54:18.038Z,21.20
2023-04-23T14:56:45.922Z,21.20
2023-04-23T14:59:15.146Z,21.20
2023-04-23T15:01:43.099Z,21.20
2023-04-23T15:04:12.013Z,21.20
2023-04-23T15:06:40.615Z,21.20
2023-04-23T15:09:09.037Z,21.10
2023-04-23T15:11:38.781Z,21.10
2023-04-23T15:14:09.949Z,21.10
2023-04-23T15:16:48.860Z,21.10
2023-04-23T15:19:18.870Z,21.10
2023-04-23T15:21:47.415Z,21.10
2023-04-23T15:24:15.914Z,21.00
2023-04-23T15:26:44.026Z,21.10
2023-04-23T15:29:13.260Z,21.10
2023-04-23T15:31:42.830Z,21.10
2023-04-23T15:34:12.043Z,21.10
2023-04-23T15:36:40.130Z,21.10
2023-04-23T15:39:10.891Z,21.10
2023-04-23T15:41:40.989Z,21.10
2023-04-23T15:44:12.043Z,21.10
2023-04-23T15:46:40.356Z,21.10
2023-04-23T15:49:09.616Z,21.00
2023-04-23T15:51:37.874Z,21.00
2023-04-23T15:54:08.444Z,21.00
2023-04-23T15:56:37.471Z,20.90
2023-04-23T15:59:05.939Z,20.70
2023-04-23T16:01:33.973Z,20.60
2023-04-23T16:04:10.383Z,20.50
2023-04-23T16:06:40.844Z,20.40
2023-04-23T16:09:09.006Z,20.10
2023-04-23T16:11:37.450Z,19.70
2023-04-23T16:14:06.301Z,19.30
2023-04-23T16:16:34.224Z,18.80
2023-04-23T16:19:03.410Z,18.60
2023-04-23T16:21:32.050Z,18.30
2023-04-23T16:24:01.384Z,18.10
2023-04-23T16:26:29.801Z,18.00
2023-04-23T16:31:28.743Z,17.70
2023-04-23T16:33:56.741Z,17.50
2023-04-23T16:36:24.673Z,17.50
2023-04-23T16:38:52.567Z,17.50
2023-04-23T16:41:21.993Z,17.50
2023-04-23T16:43:49.914Z,17.50
2023-04-23T16:46:17.942Z,17.50
2023-04-23T16:48:46.239Z,17.60
2023-04-23T16:51:14.335Z,17.60
2023-04-23T16:53:42.151Z,17.60
2023-04-23T16:56:10.240Z,17.60
2023-04-23T16:58:39.517Z,17.50
2023-04-23T17:01:07.335Z,17.50
2023-04-23T17:03:36.531Z,17.50
2023-04-23T17:06:11.818Z,17.50
2023-04-23T17:08:40.781Z,17.50
2023-04-23T17:11:08.872Z,17.40
2023-04-23T17:13:36.787Z,17.40
2023-04-23T17:16:06.396Z,17.40
2023-04-23T17:18:34.237Z,17.30
2023-04-23T17:21:02.229Z,17.30
2023-04-23T17:23:30.441Z,17.20
2023-04-23T17:25:58.268Z,17.20
2023-04-23T17:28:26.129Z,17.20
2023-04-23T17:30:55.777Z,17.20
2023-04-23T17:33:25.604Z,17.10
2023-04-23T17:35:55.212Z,17.10
2023-04-23T17:38:24.562Z,17.10
2023-04-23T17:40:53.309Z,17.10
2023-04-23T17:43:21.748Z,17.10
2023-04-23T17:45:49.962Z,17.00
2023-04-23T17:48:17.871Z,17.00
2023-04-23T17:50:47.943Z,17.00
2023-04-23T17:53:15.914Z,17.00
2023-04-23T17:55:43.810Z,16.90
2023-04-23T17:58:11.701Z,16.90
2023-04-23T18:00:42.571Z,16.90
2023-04-23T18:03:11.764Z,16.90
2023-04-23T18:05:40.112Z,16.80
2023-04-23T18:08:09.397Z,16.80
2023-04-23T18:10:37.372Z,16.80
2023-04-23T18:13:08.978Z,16.70
2023-04-23T18:15:36.838Z,16.80
2023-04-23T18:18:05.142Z,16.70
2023-04-23T18:20:35.343Z,16.70
2023-04-23T18:23:03.503Z,16.60
2023-04-23T18:25:32.899Z,16.60
2023-04-23T18:28:00.813Z,16.60
2023-04-23T18:30:28.707Z,16.60
2023-04-23T18:33:03.824Z,16.60
2023-04-23T18:35:31.704Z,16.50
2023-04-23T18:38:06.726Z,16.50
2023-04-23T18:40:36.049Z,16.50
2023-04-23T18:43:03.942Z,16.40
2023-04-23T18:45:31.774Z,16.40
2023-04-23T18:48:06.174Z,16.30
2023-04-23T18:50:42.562Z,16.30
2023-04-23T18:53:10.572Z,16.20
2023-04-23T18:55:39.786Z,16.20
2023-04-23T18:58:07.689Z,16.20
2023-04-23T19:00:35.810Z,16.10
2023-04-23T19:03:12.030Z,16.10
2023-04-23T19:05:48.409Z,16.00
2023-04-23T19:08:16.393Z,16.00
2023-04-23T19:10:45.689Z,16.10
2023-04-23T19:13:13.540Z,16.00
2023-04-23T19:15:41.455Z,16.00
2023-04-23T19:18:09.286Z,15.90
2023-04-23T19:20:37.206Z,15.90
2023-04-23T19:23:05.157Z,15.90
2023-04-23T19:25:33.055Z,15.90
2023-04-23T19:28:02.396Z,15.90
2023-04-23T19:30:30.328Z,15.80
2023-04-23T19:32:58.159Z,15.80
2023-04-23T19:35:26.467Z,15.80
2023-04-23T19:37:54.332Z,15.70
2023-04-23T19:40:22.265Z,15.70
2023-04-23T19:42:50.167Z,15.70
2023-04-23T19:45:19.430Z,15.70
2023-04-23T19:47:47.953Z,15.70
2023-04-23T19:50:16.108Z,15.60
2023-04-23T19:52:43.969Z,15.60
2023-04-23T19:55:11.924Z,15.60
2023-04-23T19:57:40.148Z,15.60
2023-04-23T20:00:12.371Z,15.50
2023-04-23T20:02:42.062Z,15.40
2023-04-23T20:05:11.379Z,15.50
2023-04-23T20:07:39.708Z,15.40
2023-04-23T20:10:08.592Z,15.40
2023-04-23T20:12:36.452Z,15.40
2023-04-23T20:15:04.806Z,15.30
2023-04-23T20:17:32.870Z,15.30
2023-04-23T20:20:02.747Z,15.30
2023-04-23T20:22:30.908Z,15.20
2023-04-23T20:24:58.913Z,15.30
2023-04-23T20:27:27.311Z,15.30
2023-04-23T20:29:55.346Z,15.20
2023-04-23T20:32:23.329Z,15.20
2023-04-23T20:34:52.517Z,15.20
2023-04-23T20:37:21.949Z,15.10
2023-04-23T20:39:50.136Z,15.10
2023-04-23T20:42:18.133Z,15.10
2023-04-23T20:44:47.048Z,15.00
2023-04-23T20:47:16.233Z,15.00
2023-04-23T20:49:46.991Z,14.90
2023-04-23T20:52:15.431Z,14.90
2023-04-23T20:54:44.598Z,14.90
2023-04-23T20:57:12.515Z,14.90
2023-04-23T20:59:41.630Z,14.90
2023-04-23T21:02:12.865Z,14.80
2023-04-23T21:04:40.962Z,14.80
2023-04-23T21:07:08.984Z,14.80
2023-04-23T21:09:36.856Z,14.80
2023-04-23T21:12:06.347Z,14.80
2023-04-23T21:14:34.622Z,14.70
2023-04-23T21:17:02.505Z,14.70
2023-04-23T21:19:30.315Z,14.70
2023-04-23T21:21:58.149Z,14.70
2023-04-23T21:24:26.036Z,14.60
2023-04-23T21:26:54.055Z,14.60
2023-04-23T21:29:23.314Z,14.60
2023-04-23T21:31:53.730Z,14.50
2023-04-23T21:34:22.095Z,14.50
2023-04-23T21:36:50.403Z,14.50
2023-04-23T21:39:18.285Z,14.50
2023-04-23T21:41:47.073Z,14.50
2023-04-23T21:44:14.969Z,14.50
2023-04-23T21:46:44.893Z,14.40
2023-04-23T21:49:13.169Z,14.40
2023-04-23T21:51:41.144Z,14.40
2023-04-23T21:54:09.229Z,14.40
2023-04-23T21:56:37.344Z,14.30
2023-04-23T21:59:05.940Z,14.30
2023-04-23T22:01:36.558Z,14.30
2023-04-23T22:04:06.305Z,14.30
2023-04-23T22:06:35.169Z,14.20
2023-04-23T22:09:02.992Z,14.20
2023-04-23T22:11:31.562Z,14.20
2023-04-23T22:14:00.057Z,14.20
2023-04-23T22:16:29.088Z,14.20
2023-04-23T22:18:58.006Z,14.10
2023-04-23T22:21:28.179Z,14.10
2023-04-23T22:23:56.099Z,14.10
2023-04-23T22:26:23.937Z,14.10
2023-04-23T22:28:51.866Z,14.00
2023-04-23T22:31:19.726Z,14.00
2023-04-23T22:33:47.559Z,14.00
2023-04-23T22:36:15.396Z,14.00
2023-04-23T22:38:44.618Z,13.90
2023-04-23T22:41:13.047Z,13.90
2023-04-23T22:43:40.944Z,13.80
2023-04-23T22:46:11.891Z,13.90
2023-04-23T22:48:43.922Z,13.80
2023-04-23T22:51:11.887Z,13.80
2023-04-23T22:53:40.534Z,13.80
2023-04-23T22:56:09.797Z,13.80
2023-04-23T22:58:38.071Z,13.70
2023-04-23T23:01:06.769Z,13.70
2023-04-23T23:03:34.841Z,13.70
2023-04-23T23:06:02.731Z,13.70
2023-04-23T23:08:30.614Z,13.60
2023-04-23T23:10:58.487Z,13.70
2023-04-23T23:13:27.678Z,13.60
2023-04-23T23:15:55.559Z,13.60
2023-04-23T23:18:23.426Z,13.60
2023-04-23T23:20:51.414Z,13.50
2023-04-23T23:23:19.284Z,13.60
2023-04-23T23:25:47.085Z,13.50
2023-04-23T23:28:14.890Z,13.50
2023-04-23T23:30:44.092Z,13.50
2023-04-23T23:33:11.921Z,13.50
2023-04-23T23:35:40.718Z,13.50
2023-04-23T23:38:09.707Z,13.50
2023-04-23T23:40:37.606Z,13.50
2023-04-23T23:43:05.817Z,13.40
2023-04-23T23:45:33.775Z,13.40
2023-04-23T23:48:05.626Z,13.40
2023-04-23T23:50:33.668Z,13.40
2023-04-23T23:53:01.510Z,13.40
2023-04-23T23:55:29.459Z,13.40
2023-04-23T23:57:57.328Z,13.40
